Time;durP1;ratioP1;P1;durP2;ratioP2;P2;SDS_P1;SDS_P2;PMS_P1;PMS_P2;Temp;Humidity;BMP_temperature;BMP_pressure;BME280_temperature;BME280_humidity;BME280_pressure;Samples;Min_cycle;Max_cycle;Signal;HPM_P1;HPM_P2
2022/03/24 00:00:23;;;;;;;22.23;17.73;;;5.00;99.90;;;;;;4981190;28;20199;-76
2022/03/24 00:02:51;;;;;;;18.17;15.67;;;5.00;99.90;;;;;;4979954;28;20193;-76
2022/03/24 00:05:18;;;;;;;23.97;18.33;;;5.00;99.90;;;;;;4971264;28;20210;-76
2022/03/24 00:07:45;;;;;;;20.40;16.10;;;5.00;99.90;;;;;;4980649;28;20276;-76
2022/03/24 00:10:12;;;;;;;21.20;16.87;;;5.00;99.90;;;;;;4975380;28;20630;-76
2022/03/24 00:12:40;;;;;;;25.10;17.57;;;5.00;99.90;;;;;;4981200;28;20197;-77
2022/03/24 00:15:09;;;;;;;22.37;17.17;;;5.00;99.90;;;;;;4977718;28;20291;-76
2022/03/24 00:17:36;;;;;;;21.23;17.10;;;4.90;99.90;;;;;;4980736;28;20725;-76
2022/03/24 00:20:05;;;;;;;21.50;16.63;;;4.90;99.90;;;;;;4978389;28;20255;-76
2022/03/24 00:22:32;;;;;;;19.67;16.97;;;4.80;99.90;;;;;;4972694;28;20276;-76
2022/03/24 00:24:59;;;;;;;20.60;17.20;;;4.80;99.90;;;;;;4980375;28;20582;-76
2022/03/24 00:27:27;;;;;;;19.17;16.27;;;4.70;99.90;;;;;;4975330;28;20222;-76
2022/03/24 00:29:54;;;;;;;20.77;16.20;;;4.60;99.90;;;;;;4978317;28;20221;-76
2022/03/24 00:32:20;;;;;;;22.33;17.07;;;4.50;99.90;;;;;;4983763;28;20259;-76
2022/03/24 00:34:47;;;;;;;23.93;16.93;;;4.40;99.90;;;;;;4973705;28;20262;-76
2022/03/24 00:37:17;;;;;;;20.77;16.33;;;4.40;99.90;;;;;;4984412;28;20712;-76
2022/03/24 00:39:44;;;;;;;17.43;15.63;;;4.30;99.90;;;;;;4977181;28;20605;-76
2022/03/24 00:42:12;;;;;;;21.73;17.23;;;4.30;99.90;;;;;;4969058;28;20663;-75
2022/03/24 00:44:41;;;;;;;22.23;17.33;;;4.20;99.90;;;;;;4983906;28;20782;-76
2022/03/24 00:47:08;;;;;;;21.57;17.87;;;4.20;99.90;;;;;;4969851;28;20218;-76
2022/03/24 00:49:35;;;;;;;22.90;18.03;;;4.10;99.90;;;;;;4986884;28;20613;-76
2022/03/24 00:52:03;;;;;;;21.93;17.43;;;4.10;99.90;;;;;;4971578;28;20199;-76
2022/03/24 00:54:31;;;;;;;21.73;17.70;;;4.00;99.90;;;;;;4986607;28;20729;-76
2022/03/24 00:56:58;;;;;;;20.37;16.17;;;3.90;99.90;;;;;;4976195;28;20761;-76
2022/03/24 00:59:25;;;;;;;19.73;16.87;;;3.80;99.90;;;;;;4972815;28;20210;-76
2022/03/24 01:01:53;;;;;;;20.53;16.27;;;3.70;99.90;;;;;;4981763;28;20208;-76
2022/03/24 01:04:21;;;;;;;19.43;15.43;;;3.60;99.90;;;;;;4974445;28;20206;-76
2022/03/24 01:06:48;;;;;;;22.60;15.90;;;3.60;99.90;;;;;;4984777;28;20201;-76
2022/03/24 01:09:15;;;;;;;16.97;14.70;;;3.50;99.90;;;;;;4971674;28;20458;-76
2022/03/24 01:11:43;;;;;;;19.23;15.53;;;3.40;99.90;;;;;;4986261;28;20456;-76
2022/03/24 01:14:11;;;;;;;18.90;16.13;;;3.40;99.90;;;;;;4972088;28;20900;-76
2022/03/24 01:16:38;;;;;;;24.00;16.73;;;3.30;99.90;;;;;;4959683;28;20455;-76
2022/03/24 01:19:05;;;;;;;20.47;15.77;;;3.30;99.90;;;;;;4976852;28;20872;-76
2022/03/24 01:21:33;;;;;;;17.97;14.87;;;3.20;99.90;;;;;;4975035;28;20455;-76
2022/03/24 01:24:01;;;;;;;17.50;14.70;;;3.20;99.90;;;;;;4980954;28;20879;-76
2022/03/24 01:26:28;;;;;;;17.57;15.13;;;3.20;99.90;;;;;;4976386;28;20481;-75
2022/03/24 01:28:57;;;;;;;20.30;15.13;;;3.20;99.90;;;;;;4986309;28;20518;-76
2022/03/24 01:31:24;;;;;;;20.33;15.57;;;3.30;99.90;;;;;;4974745;28;20474;-76
2022/03/24 01:33:54;;;;;;;17.10;14.90;;;3.20;99.90;;;;;;4980744;28;20433;-76
2022/03/24 01:36:21;;;;;;;22.33;17.70;;;3.20;99.90;;;;;;4977554;28;20436;-76
2022/03/24 01:38:48;;;;;;;20.00;16.50;;;3.10;99.90;;;;;;4981306;28;20901;-76
2022/03/24 01:41:19;;;;;;;22.77;17.50;;;3.10;99.90;;;;;;4976081;28;20526;-76
2022/03/24 01:43:46;;;;;;;24.97;17.73;;;3.00;99.90;;;;;;4973715;28;20547;-76
2022/03/24 01:46:20;;;;;;;21.43;17.40;;;3.00;99.90;;;;;;4979120;28;20593;-76
2022/03/24 01:48:47;;;;;;;19.30;16.37;;;3.00;99.90;;;;;;4982132;28;20468;-76
2022/03/24 01:51:16;;;;;;;23.90;16.37;;;3.00;99.90;;;;;;4978306;28;20285;-76
2022/03/24 01:53:43;;;;;;;19.83;15.93;;;3.00;99.90;;;;;;4977199;28;20456;-76
2022/03/24 01:56:10;;;;;;;18.93;15.77;;;2.90;99.90;;;;;;4981246;28;20428;-76
2022/03/24 01:58:38;;;;;;;24.03;18.03;;;2.90;99.90;;;;;;5016983;23;20585;-79
2022/03/24 02:01:27;;;;;;;22.87;17.23;;;2.90;99.90;;;;;;5007981;28;20452;-79
2022/03/24 02:03:56;;;;;;;23.10;17.77;;;2.90;99.90;;;;;;5002278;28;20473;-80
2022/03/24 02:06:22;;;;;;;24.67;18.30;;;2.80;99.90;;;;;;5010461;28;20483;-78
2022/03/24 02:08:50;;;;;;;22.47;17.13;;;2.90;99.90;;;;;;4988021;28;20469;-79
2022/03/24 02:11:16;;;;;;;21.30;17.27;;;2.90;99.90;;;;;;4991365;28;20457;-80
2022/03/24 02:13:43;;;;;;;21.10;16.67;;;2.90;99.90;;;;;;4983040;28;20458;-79
2022/03/24 02:16:11;;;;;;;23.63;18.30;;;2.80;99.90;;;;;;4984274;28;20449;-79
2022/03/24 02:18:39;;;;;;;23.60;16.10;;;2.90;99.90;;;;;;4977050;28;20501;-78
2022/03/24 02:21:06;;;;;;;19.80;16.43;;;2.90;99.90;;;;;;4992005;28;20833;-79
2022/03/24 02:23:34;;;;;;;17.87;15.57;;;2.80;99.90;;;;;;4985190;28;20440;-79
2022/03/24 02:26:02;;;;;;;24.13;17.87;;;2.80;99.90;;;;;;4984090;28;20914;-79
2022/03/24 02:28:30;;;;;;;21.20;17.33;;;2.70;99.90;;;;;;4988369;28;20454;-79
2022/03/24 02:30:57;;;;;;;21.57;17.20;;;2.70;99.90;;;;;;4988212;28;20451;-79
2022/03/24 02:33:24;;;;;;;20.20;17.03;;;2.80;99.90;;;;;;4983519;28;20921;-79
2022/03/24 02:35:52;;;;;;;21.03;16.60;;;2.80;99.90;;;;;;4986278;28;20453;-79
2022/03/24 02:38:20;;;;;;;22.50;16.97;;;2.80;99.90;;;;;;4989258;28;20547;-79
2022/03/24 02:40:49;;;;;;;22.57;17.93;;;2.90;99.90;;;;;;4989665;28;20438;-79
2022/03/24 02:43:19;;;;;;;19.33;16.20;;;3.00;99.90;;;;;;4989858;28;20963;-79
2022/03/24 02:45:46;;;;;;;19.80;16.53;;;2.90;99.90;;;;;;4984933;28;20562;-79
2022/03/24 02:48:13;;;;;;;23.30;18.37;;;2.80;99.90;;;;;;4990270;28;20554;-79
2022/03/24 02:50:40;;;;;;;19.30;16.20;;;2.70;99.90;;;;;;4986729;28;20444;-81
2022/03/24 02:53:07;;;;;;;20.37;15.57;;;2.60;99.90;;;;;;4985052;28;20527;-79
2022/03/24 02:55:33;;;;;;;18.00;15.53;;;2.50;99.90;;;;;;4988636;28;20428;-79
2022/03/24 02:58:02;;;;;;;18.43;15.47;;;2.40;99.90;;;;;;4986183;28;21071;-80
2022/03/24 03:00:29;;;;;;;19.83;15.93;;;2.40;99.90;;;;;;4990395;28;20438;-80
2022/03/24 03:02:56;;;;;;;24.67;18.13;;;2.30;99.90;;;;;;5000014;28;20457;-78
2022/03/24 03:05:23;;;;;;;20.27;16.30;;;2.30;99.90;;;;;;4985656;28;20469;-79
2022/03/24 03:07:51;;;;;;;19.47;16.40;;;2.30;99.90;;;;;;4985362;28;20466;-79
2022/03/24 03:10:18;;;;;;;20.47;17.23;;;2.20;99.90;;;;;;4982940;28;20514;-78
2022/03/24 03:12:46;;;;;;;23.13;18.03;;;2.20;99.90;;;;;;4990289;28;20492;-79
2022/03/24 03:15:15;;;;;;;21.40;17.13;;;2.30;99.90;;;;;;4983999;28;20502;-78
2022/03/24 03:17:42;;;;;;;23.77;16.77;;;2.40;99.90;;;;;;4987312;28;21041;-80
2022/03/24 03:20:12;;;;;;;21.63;16.27;;;2.30;99.90;;;;;;4985777;28;20454;-78
2022/03/24 03:22:39;;;;;;;22.90;17.27;;;2.30;99.90;;;;;;4989331;28;20422;-79
2022/03/24 03:25:08;;;;;;;21.30;16.73;;;2.40;99.90;;;;;;4985908;28;20501;-79
2022/03/24 03:27:35;;;;;;;19.10;16.07;;;2.40;99.90;;;;;;4989289;28;20808;-79
2022/03/24 03:30:02;;;;;;;20.97;15.87;;;2.40;99.90;;;;;;4984350;28;20472;-79
2022/03/24 03:32:30;;;;;;;23.53;16.27;;;2.40;99.90;;;;;;4987478;28;20526;-81
2022/03/24 03:34:57;;;;;;;20.97;16.70;;;2.50;99.90;;;;;;4989093;28;20502;-82
2022/03/24 03:37:24;;;;;;;18.47;15.13;;;2.50;99.90;;;;;;4988185;28;20523;-79
2022/03/24 03:39:51;;;;;;;21.50;16.60;;;2.40;99.90;;;;;;4990692;28;20455;-77
2022/03/24 03:42:19;;;;;;;19.73;16.43;;;2.30;99.90;;;;;;4983337;28;22106;-80
2022/03/24 03:44:46;;;;;;;19.37;15.70;;;2.30;99.90;;;;;;4979900;28;20464;-80
2022/03/24 03:47:13;;;;;;;20.50;16.17;;;2.20;99.90;;;;;;4977806;28;20483;-82
2022/03/24 03:49:41;;;;;;;20.67;15.87;;;2.10;99.90;;;;;;4979949;28;20446;-79
2022/03/24 03:52:08;;;;;;;18.80;15.03;;;2.10;99.90;;;;;;4977040;28;20440;-80
2022/03/24 03:54:35;;;;;;;20.03;16.07;;;2.00;99.90;;;;;;4988847;28;20500;-80
2022/03/24 03:57:03;;;;;;;20.00;16.27;;;1.90;99.90;;;;;;4980771;28;20451;-79
2022/03/24 03:59:31;;;;;;;22.50;17.10;;;1.90;99.90;;;;;;4991730;28;20448;-79
2022/03/24 04:01:59;;;;;;;21.57;16.83;;;1.80;99.90;;;;;;4976807;28;20517;-79
2022/03/24 04:04:26;;;;;;;23.53;17.93;;;1.80;99.90;;;;;;4973978;28;20460;-80
2022/03/24 04:06:54;;;;;;;27.20;18.30;;;1.80;99.90;;;;;;4989115;28;20471;-78
2022/03/24 04:09:21;;;;;;;23.33;16.87;;;1.80;99.90;;;;;;4979903;28;20475;-79
2022/03/24 04:11:47;;;;;;;28.43;18.77;;;1.80;99.90;;;;;;4983083;28;20859;-85
2022/03/24 04:14:14;;;;;;;20.43;15.90;;;1.80;99.90;;;;;;4981729;28;20474;-83
2022/03/24 04:16:41;;;;;;;20.83;16.87;;;1.90;99.90;;;;;;4993285;28;20438;-84
2022/03/24 04:19:09;;;;;;;23.60;18.07;;;1.90;99.90;;;;;;5009196;28;20488;-81
2022/03/24 04:21:35;;;;;;;20.00;15.73;;;1.90;99.90;;;;;;4983144;28;20461;-81
2022/03/24 04:24:04;;;;;;;23.23;17.50;;;2.00;99.90;;;;;;4978699;28;20435;-83
2022/03/24 04:26:31;;;;;;;20.03;16.50;;;2.00;99.90;;;;;;4983108;28;20483;-80
2022/03/24 04:28:58;;;;;;;19.53;16.33;;;2.10;99.90;;;;;;4984489;28;20540;-79
2022/03/24 04:31:25;;;;;;;18.20;15.73;;;2.20;99.90;;;;;;4982208;28;20459;-80
2022/03/24 04:33:53;;;;;;;24.27;17.40;;;2.20;99.90;;;;;;4986455;28;20454;-79
2022/03/24 04:36:20;;;;;;;21.77;16.20;;;2.20;99.90;;;;;;4988614;28;20466;-79
2022/03/24 04:38:47;;;;;;;21.97;17.53;;;2.20;99.90;;;;;;5011189;28;20480;-81
2022/03/24 04:41:15;;;;;;;20.80;16.73;;;2.20;99.90;;;;;;4989934;28;20468;-79
2022/03/24 04:43:42;;;;;;;21.57;17.93;;;2.10;99.90;;;;;;4985143;28;20445;-80
2022/03/24 04:46:09;;;;;;;20.03;15.77;;;2.00;99.90;;;;;;4985212;28;20483;-80
2022/03/24 04:48:36;;;;;;;16.67;14.53;;;1.90;99.90;;;;;;4985467;28;20552;-80
2022/03/24 04:51:07;;;;;;;19.53;15.43;;;1.80;99.90;;;;;;4986200;28;20469;-79
2022/03/24 04:53:34;;;;;;;18.10;15.77;;;1.80;99.90;;;;;;4986986;28;20435;-79
2022/03/24 04:56:01;;;;;;;23.03;17.67;;;1.70;99.90;;;;;;4986709;28;20483;-78
2022/03/24 04:58:29;;;;;;;25.20;18.03;;;1.70;99.90;;;;;;4987176;28;20829;-80
2022/03/24 05:00:56;;;;;;;21.13;17.60;;;1.60;99.90;;;;;;4985103;28;20447;-80
2022/03/24 05:03:23;;;;;;;24.07;17.33;;;1.60;99.90;;;;;;4983381;28;20448;-80
2022/03/24 05:05:50;;;;;;;22.03;17.43;;;1.60;99.90;;;;;;4999676;28;20458;-80
2022/03/24 05:08:17;;;;;;;24.07;17.23;;;1.70;99.90;;;;;;4985831;28;20510;-80
2022/03/24 05:10:43;;;;;;;19.17;16.70;;;1.60;99.90;;;;;;4987838;28;20472;-80
2022/03/24 05:13:10;;;;;;;18.97;15.30;;;1.60;99.90;;;;;;4984885;28;20467;-80
2022/03/24 05:15:38;;;;;;;23.83;17.13;;;1.50;99.90;;;;;;4981672;28;20456;-79
2022/03/24 05:18:05;;;;;;;20.03;16.30;;;1.50;99.90;;;;;;4993469;28;20532;-80
2022/03/24 05:20:33;;;;;;;28.27;19.03;;;1.50;99.90;;;;;;4986697;28;20919;-80
2022/03/24 05:23:01;;;;;;;27.37;17.73;;;1.40;99.90;;;;;;4987424;28;20451;-79
2022/03/24 05:25:28;;;;;;;22.23;16.60;;;1.50;99.90;;;;;;4998129;28;20541;-80
2022/03/24 05:27:55;;;;;;;24.17;18.60;;;1.40;99.90;;;;;;4983490;28;20482;-80
2022/03/24 05:30:22;;;;;;;24.30;18.10;;;1.50;99.90;;;;;;4987833;28;20438;-79
2022/03/24 05:32:50;;;;;;;21.37;17.37;;;1.50;99.90;;;;;;4985401;28;20449;-79
2022/03/24 05:35:17;;;;;;;21.90;17.30;;;1.50;99.90;;;;;;4987184;28;20465;-79
2022/03/24 05:37:44;;;;;;;20.20;16.97;;;1.50;99.90;;;;;;4986062;28;20457;-80
2022/03/24 05:40:13;;;;;;;25.57;18.77;;;1.60;99.90;;;;;;4985201;28;20448;-79
2022/03/24 05:42:39;;;;;;;24.10;18.13;;;1.60;99.90;;;;;;4984652;28;20504;-79
2022/03/24 05:45:07;;;;;;;24.43;19.30;;;1.70;99.90;;;;;;4981591;28;20446;-80
2022/03/24 05:47:34;;;;;;;24.63;18.50;;;1.70;99.90;;;;;;4987409;28;20539;-79
2022/03/24 05:50:02;;;;;;;23.30;18.00;;;1.80;99.90;;;;;;4982439;28;20437;-79
2022/03/24 05:52:45;;;;;;;24.43;17.30;;;1.90;99.90;;;;;;4981835;28;20466;-80
2022/03/24 05:55:12;;;;;;;25.50;18.17;;;2.00;99.90;;;;;;4982588;28;20443;-80
2022/03/24 05:57:40;;;;;;;27.60;19.53;;;2.10;99.90;;;;;;4981530;28;20534;-80
2022/03/24 06:00:08;;;;;;;24.00;17.57;;;2.30;99.90;;;;;;4984005;28;20449;-80
2022/03/24 06:02:40;;;;;;;21.13;16.80;;;2.60;99.90;;;;;;4989127;28;20832;-80
2022/03/24 06:05:12;;;;;;;19.93;15.93;;;2.80;99.90;;;;;;4983887;28;20443;-80
2022/03/24 06:07:39;;;;;;;19.80;16.43;;;3.10;99.90;;;;;;4984607;28;20505;-78
2022/03/24 06:10:08;;;;;;;20.93;16.63;;;3.40;99.90;;;;;;5007604;28;20458;-80
2022/03/24 06:12:35;;;;;;;22.50;17.43;;;3.70;99.90;;;;;;4986669;28;20450;-81
2022/03/24 06:15:02;;;;;;;20.83;16.27;;;3.90;99.90;;;;;;4987246;28;20437;-79
2022/03/24 06:17:29;;;;;;;20.93;17.20;;;4.20;99.90;;;;;;4990176;28;20509;-80
2022/03/24 06:19:56;;;;;;;19.93;16.17;;;4.40;99.90;;;;;;4989431;28;20521;-80
2022/03/24 06:22:24;;;;;;;20.40;17.33;;;4.70;99.90;;;;;;4991250;28;20209;-79
2022/03/24 06:24:51;;;;;;;20.23;16.77;;;4.90;99.90;;;;;;4990774;28;20615;-79
2022/03/24 06:27:18;;;;;;;21.17;17.27;;;5.10;99.90;;;;;;4989626;28;20341;-79
2022/03/24 06:29:45;;;;;;;20.73;17.27;;;5.30;99.90;;;;;;4984650;28;20208;-79
2022/03/24 06:32:13;;;;;;;18.13;16.20;;;5.40;99.90;;;;;;4990889;28;20209;-80
2022/03/24 06:34:40;;;;;;;18.83;14.93;;;5.50;99.90;;;;;;4991318;28;20647;-81
2022/03/24 06:37:07;;;;;;;18.87;16.80;;;5.60;99.90;;;;;;4986190;28;20198;-80
2022/03/24 06:39:35;;;;;;;20.20;15.63;;;5.60;99.90;;;;;;4989989;28;20673;-80
2022/03/24 06:42:02;;;;;;;19.07;15.90;;;5.80;99.90;;;;;;4989278;28;20194;-79
2022/03/24 06:44:29;;;;;;;18.70;16.43;;;5.90;99.90;;;;;;4990813;28;20225;-80
2022/03/24 06:46:57;;;;;;;19.80;16.07;;;6.10;99.90;;;;;;4987301;28;20731;-80
2022/03/24 06:49:24;;;;;;;18.33;16.20;;;6.30;99.90;;;;;;4988949;28;20209;-80
2022/03/24 06:51:51;;;;;;;21.57;17.50;;;6.50;99.90;;;;;;4984755;28;20202;-81
2022/03/24 06:54:17;;;;;;;20.23;17.10;;;6.50;99.90;;;;;;4989625;28;20280;-80
2022/03/24 06:56:46;;;;;;;21.10;16.57;;;6.60;99.90;;;;;;4987674;28;20412;-80
2022/03/24 06:59:13;;;;;;;20.37;16.60;;;6.80;99.90;;;;;;4999358;28;20232;-79
2022/03/24 07:01:40;;;;;;;22.53;15.20;;;7.10;99.90;;;;;;5002149;28;20212;-80
2022/03/24 07:04:07;;;;;;;21.80;15.30;;;7.30;99.90;;;;;;4987085;28;20233;-78
2022/03/24 07:06:34;;;;;;;18.97;14.17;;;7.30;99.90;;;;;;4990496;28;20203;-80
2022/03/24 07:09:00;;;;;;;18.30;13.80;;;7.40;99.90;;;;;;4988137;28;20267;-79
2022/03/24 07:11:27;;;;;;;20.17;16.63;;;7.70;99.90;;;;;;4988226;28;20201;-80
2022/03/24 07:13:55;;;;;;;20.43;14.53;;;8.10;99.90;;;;;;4984317;28;20259;-79
2022/03/24 07:16:22;;;;;;;22.57;16.70;;;8.40;99.90;;;;;;4988906;28;20212;-80
2022/03/24 07:18:51;;;;;;;18.67;15.33;;;8.80;99.90;;;;;;4986752;28;20221;-80
2022/03/24 07:21:19;;;;;;;18.50;14.53;;;9.20;99.90;;;;;;4999300;28;20202;-80
2022/03/24 07:23:46;;;;;;;21.63;15.83;;;9.60;99.90;;;;;;4986964;28;20577;-80
2022/03/24 07:26:13;;;;;;;17.37;14.10;;;9.90;99.90;;;;;;4988583;28;20201;-80
2022/03/24 07:28:40;;;;;;;20.03;15.87;;;10.00;99.90;;;;;;4990254;28;20274;-79
2022/03/24 07:31:14;;;;;;;21.17;16.00;;;10.20;99.90;;;;;;4986577;28;20296;-81
2022/03/24 07:33:41;;;;;;;18.67;16.03;;;10.50;99.90;;;;;;4975486;28;20206;-80
2022/03/24 07:36:09;;;;;;;21.50;15.13;;;10.70;99.90;;;;;;4991101;28;20199;-79
2022/03/24 07:38:36;;;;;;;20.00;15.53;;;11.10;99.90;;;;;;4992052;28;20220;-80
2022/03/24 07:41:03;;;;;;;18.57;14.20;;;11.40;99.80;;;;;;5005345;28;20238;-80
2022/03/24 07:43:30;;;;;;;18.33;14.63;;;11.80;99.20;;;;;;4990781;28;20815;-83
2022/03/24 07:45:57;;;;;;;20.00;15.47;;;12.00;98.50;;;;;;4986106;28;20627;-80
2022/03/24 07:48:26;;;;;;;21.50;15.30;;;12.20;98.40;;;;;;4993268;28;20766;-80
2022/03/24 07:50:54;;;;;;;20.73;14.53;;;12.10;98.00;;;;;;4984865;28;20267;-79
2022/03/24 07:53:41;;;;;;;23.87;15.30;;;12.30;97.70;;;;;;4985292;28;20260;-79
2022/03/24 07:56:08;;;;;;;20.17;14.60;;;12.60;97.70;;;;;;4982351;28;20230;-81
2022/03/24 07:58:36;;;;;;;18.50;15.20;;;12.90;96.90;;;;;;4988021;28;20272;-80
2022/03/24 08:01:03;;;;;;;18.93;14.87;;;13.00;96.70;;;;;;4986686;28;20275;-80
2022/03/24 08:03:31;;;;;;;18.53;14.37;;;13.10;96.10;;;;;;4990684;28;20197;-80
2022/03/24 08:05:58;;;;;;;17.90;12.67;;;13.10;96.40;;;;;;4987239;28;20197;-81
2022/03/24 08:08:26;;;;;;;20.13;15.47;;;13.30;96.10;;;;;;4982102;28;20225;-80
2022/03/24 08:10:54;;;;;;;16.57;14.13;;;13.50;96.40;;;;;;4984011;28;20281;-80
2022/03/24 08:13:22;;;;;;;16.70;13.63;;;13.80;96.10;;;;;;4986864;28;20216;-81
2022/03/24 08:15:50;;;;;;;17.47;14.00;;;14.10;95.50;;;;;;4985826;28;20214;-79
2022/03/24 08:18:18;;;;;;;17.40;14.93;;;14.30;94.80;;;;;;4986891;28;20226;-80
2022/03/24 08:20:48;;;;;;;19.30;14.87;;;14.40;95.00;;;;;;5003095;28;20201;-80
2022/03/24 08:23:17;;;;;;;17.07;13.50;;;14.60;94.10;;;;;;4987130;28;20666;-80
2022/03/24 08:25:45;;;;;;;17.87;14.50;;;14.60;93.80;;;;;;4987069;28;20202;-79
2022/03/24 08:28:13;;;;;;;22.10;15.57;;;14.70;93.70;;;;;;4985267;28;20319;-79
2022/03/24 08:30:41;;;;;;;22.10;15.63;;;14.90;93.60;;;;;;4980897;28;20623;-79
2022/03/24 08:33:09;;;;;;;23.00;16.83;;;14.80;93.60;;;;;;4989570;28;20228;-80
2022/03/24 08:35:36;;;;;;;28.47;16.93;;;14.90;94.50;;;;;;4985839;28;20200;-81
2022/03/24 08:38:04;;;;;;;22.50;15.90;;;14.90;93.20;;;;;;4992244;28;20265;-80
2022/03/24 08:40:31;;;;;;;22.83;16.20;;;15.10;93.50;;;;;;4988793;28;20219;-80
2022/03/24 08:42:58;;;;;;;21.53;14.77;;;15.30;92.70;;;;;;4989330;28;20266;-78
2022/03/24 08:45:25;;;;;;;22.13;16.33;;;15.50;92.40;;;;;;4984996;28;20674;-80
2022/03/24 08:47:53;;;;;;;20.17;15.67;;;15.60;92.80;;;;;;4986882;28;20219;-80
2022/03/24 08:50:21;;;;;;;21.30;14.63;;;15.60;92.90;;;;;;4986058;28;20264;-81
2022/03/24 08:52:49;;;;;;;18.07;14.50;;;15.80;91.50;;;;;;4986163;28;20228;-78
2022/03/24 08:55:18;;;;;;;22.63;16.70;;;16.00;91.10;;;;;;4986781;28;20629;-80
2022/03/24 08:57:45;;;;;;;19.60;15.80;;;15.90;91.10;;;;;;4989083;28;20221;-80
2022/03/24 09:00:15;;;;;;;22.60;16.07;;;16.00;91.80;;;;;;4982785;28;20208;-80
2022/03/24 09:02:43;;;;;;;22.83;17.30;;;16.40;91.10;;;;;;4985169;28;20347;-80
2022/03/24 09:05:11;;;;;;;23.77;17.50;;;16.40;90.50;;;;;;4984355;28;20213;-79
2022/03/24 09:07:39;;;;;;;19.10;15.13;;;16.40;90.10;;;;;;5003389;28;20221;-80
2022/03/24 09:10:07;;;;;;;22.23;16.00;;;16.80;90.90;;;;;;4984944;28;20202;-78
2022/03/24 09:12:37;;;;;;;20.37;16.57;;;16.90;90.20;;;;;;4986638;28;20680;-79
2022/03/24 09:15:07;;;;;;;20.30;15.70;;;17.10;88.50;;;;;;4986526;28;20269;-78
2022/03/24 09:17:36;;;;;;;24.77;16.70;;;16.80;90.60;;;;;;4980007;28;20244;-80
2022/03/24 09:20:03;;;;;;;21.63;15.70;;;16.90;88.90;;;;;;4988792;28;20248;-79
2022/03/24 09:22:30;;;;;;;20.27;15.43;;;17.00;90.20;;;;;;4982006;28;20269;-79
2022/03/24 09:24:58;;;;;;;22.73;16.13;;;17.50;88.40;;;;;;4983740;28;20194;-81
2022/03/24 09:27:25;;;;;;;17.70;14.60;;;17.70;87.90;;;;;;4987745;28;20220;-79
2022/03/24 09:29:53;;;;;;;20.13;15.53;;;17.80;89.10;;;;;;4988776;28;20197;-79
2022/03/24 09:32:20;;;;;;;17.33;14.63;;;18.00;89.60;;;;;;4986848;28;20659;-79
2022/03/24 09:34:47;;;;;;;19.13;14.57;;;18.20;87.60;;;;;;4999075;28;20230;-79
2022/03/24 09:37:17;;;;;;;19.60;15.40;;;18.50;85.20;;;;;;4984045;28;20203;-80
2022/03/24 09:39:45;;;;;;;21.27;17.27;;;18.80;84.70;;;;;;4986830;28;20228;-80
2022/03/24 09:42:13;;;;;;;21.67;16.60;;;18.40;82.50;;;;;;4993355;28;20531;-80
2022/03/24 09:44:41;;;;;;;21.33;17.17;;;18.10;84.00;;;;;;4987972;28;20194;-79
2022/03/24 09:47:12;;;;;;;20.90;17.13;;;17.90;84.40;;;;;;4987454;28;20570;-80
2022/03/24 09:49:40;;;;;;;28.17;21.40;;;18.00;84.20;;;;;;4983754;28;20279;-79
2022/03/24 09:52:07;;;;;;;23.53;19.43;;;18.10;80.90;;;;;;5004503;28;20199;-80
2022/03/24 09:54:34;;;;;;;22.47;19.83;;;18.30;82.30;;;;;;4990132;28;20198;-79
2022/03/24 09:57:04;;;;;;;20.93;18.20;;;18.60;81.80;;;;;;4988332;28;20206;-80
2022/03/24 09:59:31;;;;;;;22.80;20.40;;;18.80;81.50;;;;;;4984177;28;20216;-81
2022/03/24 10:01:59;;;;;;;21.27;19.07;;;18.60;81.50;;;;;;4992698;28;20190;-81
2022/03/24 10:04:27;;;;;;;22.30;19.80;;;18.50;80.30;;;;;;5006063;28;20193;-81
2022/03/24 10:07:04;;;;;;;22.13;19.70;;;18.20;82.80;;;;;;4989164;28;20616;-80
2022/03/24 10:09:38;;;;;;;24.77;20.17;;;18.20;82.30;;;;;;4987368;28;20253;-79
2022/03/24 10:12:06;;;;;;;24.50;19.90;;;18.00;78.60;;;;;;4984663;28;20627;-80
2022/03/24 10:14:33;;;;;;;22.20;19.73;;;17.90;79.10;;;;;;4990667;28;20248;-80
2022/03/24 10:17:10;;;;;;;21.37;19.17;;;17.80;80.30;;;;;;4988207;28;20205;-80
2022/03/24 10:19:39;;;;;;;21.23;18.67;;;17.70;79.40;;;;;;4980675;28;20253;-80
2022/03/24 10:22:11;;;;;;;22.33;19.90;;;17.50;80.70;;;;;;4986640;28;20202;-82
2022/03/24 10:24:43;;;;;;;21.40;19.13;;;17.50;79.60;;;;;;4982274;28;20759;-80
2022/03/24 10:27:13;;;;;;;22.53;20.13;;;17.40;81.30;;;;;;4983531;28;20205;-81
2022/03/24 10:29:40;;;;;;;20.97;18.70;;;17.40;83.20;;;;;;4986216;28;20210;-78
2022/03/24 10:32:14;;;;;;;18.47;16.57;;;17.40;80.20;;;;;;4987622;28;20224;-80
2022/03/24 10:34:43;;;;;;;20.87;18.53;;;17.50;81.70;;;;;;4980195;28;20221;-80
2022/03/24 10:37:12;;;;;;;21.20;18.13;;;17.30;81.10;;;;;;4985493;28;20194;-78
2022/03/24 10:39:54;;;;;;;19.93;17.80;;;17.20;80.50;;;;;;4980723;28;20190;-80
2022/03/24 10:42:26;;;;;;;20.13;18.03;;;17.10;79.60;;;;;;4988234;28;20566;-79
2022/03/24 10:45:09;;;;;;;19.83;17.83;;;17.10;79.40;;;;;;5002512;28;20206;-81
2022/03/24 10:47:42;;;;;;;19.33;17.03;;;17.00;80.50;;;;;;4987125;28;20303;-80
2022/03/24 10:50:31;;;;;;;21.23;17.80;;;17.10;81.80;;;;;;4992195;28;20202;-80
2022/03/24 10:53:00;;;;;;;24.10;18.73;;;17.20;81.20;;;;;;4983323;28;20204;-78
2022/03/24 10:56:00;;;;;;;19.47;17.03;;;17.10;79.20;;;;;;4988974;28;20276;-79
2022/03/24 10:58:31;;;;;;;20.70;16.87;;;17.20;80.50;;;;;;4987556;28;20573;-81
2022/03/24 11:01:01;;;;;;;18.20;15.53;;;17.00;80.50;;;;;;4986216;28;20207;-79
2022/03/24 11:03:28;;;;;;;17.80;15.87;;;17.20;80.50;;;;;;4990577;28;20253;-79
2022/03/24 11:06:10;;;;;;;17.33;14.20;;;17.30;81.30;;;;;;4986934;28;20245;-80
2022/03/24 11:08:37;;;;;;;19.37;16.97;;;17.40;79.50;;;;;;4988503;28;20248;-80
2022/03/24 11:11:10;;;;;;;19.27;15.40;;;17.30;75.60;;;;;;4987189;28;20216;-80
2022/03/24 11:13:44;;;;;;;19.00;15.90;;;17.30;77.60;;;;;;4984092;28;20205;-80
2022/03/24 11:16:12;;;;;;;18.73;14.53;;;17.30;77.80;;;;;;4988129;28;20188;-80
2022/03/24 11:18:40;;;;;;;19.60;15.37;;;17.20;77.40;;;;;;4975935;28;20212;-80
2022/03/24 11:21:13;;;;;;;17.90;14.23;;;17.30;77.30;;;;;;4988681;28;20669;-78
2022/03/24 11:23:40;;;;;;;16.90;13.93;;;17.40;77.20;;;;;;4978281;28;20214;-80
2022/03/24 11:26:09;;;;;;;18.03;14.10;;;17.50;77.10;;;;;;4983938;28;20654;-80
2022/03/24 11:28:37;;;;;;;17.23;15.03;;;17.40;75.60;;;;;;4987015;28;20274;-80
2022/03/24 11:31:09;;;;;;;16.33;14.67;;;17.50;75.00;;;;;;4987656;28;20245;-79
2022/03/24 11:33:39;;;;;;;16.33;14.27;;;17.50;76.60;;;;;;4988463;28;20197;-80
2022/03/24 11:36:09;;;;;;;20.50;15.67;;;17.60;74.70;;;;;;4988153;28;20214;-81
2022/03/24 11:38:37;;;;;;;18.50;14.63;;;17.60;72.40;;;;;;4988540;28;20710;-79
2022/03/24 11:41:06;;;;;;;17.47;14.10;;;17.60;73.40;;;;;;4985788;28;20205;-80
2022/03/24 11:43:35;;;;;;;17.77;13.57;;;17.50;72.20;;;;;;4986749;28;20248;-79
2022/03/24 11:46:05;;;;;;;17.57;13.90;;;17.50;73.20;;;;;;4990472;28;20231;-80
2022/03/24 11:48:34;;;;;;;16.83;13.53;;;17.40;72.90;;;;;;4989868;28;20225;-78
2022/03/24 11:51:06;;;;;;;15.40;12.47;;;17.40;72.30;;;;;;4988151;28;20197;-81
2022/03/24 11:53:39;;;;;;;18.37;14.43;;;17.50;75.00;;;;;;4985627;28;20257;-79
2022/03/24 11:56:23;;;;;;;16.60;13.37;;;17.60;73.50;;;;;;4983456;28;20197;-80
2022/03/24 11:59:23;;;;;;;16.30;12.83;;;17.60;73.10;;;;;;4987581;28;20260;-79
2022/03/24 12:02:17;;;;;;;17.67;14.53;;;17.60;73.30;;;;;;4989609;28;20569;-79
2022/03/24 12:04:46;;;;;;;14.97;13.27;;;17.60;73.80;;;;;;4969304;28;20204;-80
2022/03/24 12:07:16;;;;;;;17.53;14.73;;;17.70;71.30;;;;;;4982620;28;20670;-80
2022/03/24 12:09:58;;;;;;;18.17;16.23;;;17.70;73.60;;;;;;5002607;28;20210;-81
2022/03/24 12:12:25;;;;;;;18.97;15.33;;;17.60;73.40;;;;;;4988555;28;20205;-81
2022/03/24 12:14:54;;;;;;;16.00;13.90;;;17.70;73.90;;;;;;5002625;28;20201;-80
2022/03/24 12:17:23;;;;;;;18.50;14.47;;;17.80;74.00;;;;;;4988292;28;20710;-80
2022/03/24 12:19:52;;;;;;;18.17;14.10;;;17.80;72.80;;;;;;4985965;28;20205;-79
2022/03/24 12:22:43;;;;;;;23.83;12.90;;;17.70;72.70;;;;;;4988119;28;20205;-80
2022/03/24 12:25:31;;;;;;;15.97;13.57;;;17.80;72.00;;;;;;4984020;28;20273;-80
2022/03/24 12:28:16;;;;;;;16.67;13.73;;;17.80;72.30;;;;;;4985914;28;20225;-80
2022/03/24 12:31:06;;;;;;;19.00;16.73;;;17.90;74.90;;;;;;4991962;28;20202;-79
2022/03/24 12:33:43;;;;;;;17.67;15.87;;;17.90;76.20;;;;;;4989879;28;20216;-81
2022/03/24 12:36:13;;;;;;;18.67;16.70;;;17.90;73.20;;;;;;4984094;28;20269;-80
2022/03/24 12:38:55;;;;;;;17.57;15.80;;;17.90;73.00;;;;;;4988252;28;20217;-80
2022/03/24 12:41:29;;;;;;;18.27;16.33;;;17.90;70.30;;;;;;4987653;28;20206;-79